createdAt,value
2019-01-18T00:00:25.075Z,100011.77
2019-01-18T00:02:53.531Z,100009.11
2019-01-18T00:05:22.001Z,100018.50
2019-01-18T00:07:50.474Z,100020.02
2019-01-18T00:10:18.914Z,100021.30
2019-01-18T00:12:47.397Z,100022.11
2019-01-18T00:15:15.965Z,100022.74
2019-01-18T00:17:44.428Z,100031.07
2019-01-18T00:20:15.114Z,100032.54
2019-01-18T00:22:43.563Z,100030.94
2019-01-18T00:25:12.036Z,100030.03
2019-01-18T00:27:40.463Z,100037.26
2019-01-18T00:30:11.951Z,100041.19
2019-01-18T00:32:40.395Z,100046.57
2019-01-18T00:35:08.903Z,100058.58
2019-01-18T00:37:37.352Z,100059.29
2019-01-18T00:40:08.844Z,100064.17
2019-01-18T00:42:37.492Z,100063.36
2019-01-18T00:45:09.332Z,100067.36
2019-01-18T00:47:37.838Z,100069.58
2019-01-18T00:50:09.323Z,100077.48
2019-01-18T00:52:37.769Z,100083.98
2019-01-18T00:55:07.063Z,100081.38
2019-01-18T00:57:35.581Z,100080.30
2019-01-18T01:00:21.616Z,100087.47
2019-01-18T01:02:50.064Z,100088.22
2019-01-18T01:05:18.760Z,100092.03
2019-01-18T01:07:47.288Z,100099.10
2019-01-18T01:10:15.749Z,100088.03
2019-01-18T01:12:44.203Z,100105.63
2019-01-18T01:15:15.753Z,100105.94
2019-01-18T01:17:44.397Z,100106.45
2019-01-18T01:20:14.886Z,100114.17
2019-01-18T01:22:43.352Z,100119.93
2019-01-18T01:25:12.525Z,100125.92
2019-01-18T01:27:41.149Z,100127.94
2019-01-18T01:30:13.017Z,100129.67
2019-01-18T01:32:41.455Z,100137.92
2019-01-18T01:35:10.047Z,100153.52
2019-01-18T01:37:38.491Z,100182.22
2019-01-18T01:40:12.704Z,100189.87
2019-01-18T01:42:41.151Z,100204.05
2019-01-18T01:45:10.836Z,100221.11
2019-01-18T01:47:41.011Z,100224.91
2019-01-18T01:50:12.520Z,100241.55
2019-01-18T01:52:41.048Z,100246.60
2019-01-18T01:55:10.038Z,100250.92
2019-01-18T01:57:38.546Z,100266.08
2019-01-18T02:00:21.656Z,100270.30
2019-01-18T02:02:50.102Z,100290.98
2019-01-18T02:05:18.640Z,100286.14
2019-01-18T02:07:47.326Z,100302.95
2019-01-18T02:10:18.741Z,100306.99
2019-01-18T02:12:47.729Z,100294.77
2019-01-18T02:15:18.524Z,100314.27
2019-01-18T02:17:46.960Z,100310.52
2019-01-18T02:20:18.148Z,100326.23
2019-01-18T02:22:47.130Z,100344.20
2019-01-18T02:25:15.878Z,100340.30
2019-01-18T02:27:45.088Z,100352.95
2019-01-18T02:30:19.548Z,100354.03
2019-01-18T02:32:47.983Z,100362.99
2019-01-18T02:35:16.435Z,100374.84
2019-01-18T02:37:44.876Z,100376.23
2019-01-18T02:40:14.536Z,100387.65
2019-01-18T02:42:42.968Z,100403.78
2019-01-18T02:45:22.656Z,100398.41
2019-01-18T02:47:51.096Z,100403.45
2019-01-18T02:50:19.695Z,100408.83
2019-01-18T02:52:48.343Z,100415.50
2019-01-18T02:55:17.272Z,100432.39
2019-01-18T02:57:45.710Z,100436.14
2019-01-18T03:00:19.382Z,100437.66
2019-01-18T03:02:47.982Z,100441.01
2019-01-18T03:05:19.376Z,100444.05
2019-01-18T03:07:47.815Z,100450.91
2019-01-18T03:10:21.950Z,100459.17
2019-01-18T03:12:50.400Z,100461.65
2019-01-18T03:15:18.861Z,100477.02
2019-01-18T03:17:47.327Z,100480.94
2019-01-18T03:20:17.138Z,100482.45
2019-01-18T03:22:45.579Z,100482.02
2019-01-18T03:25:19.604Z,100493.00
2019-01-18T03:27:48.066Z,100496.89
2019-01-18T03:30:20.430Z,100502.83
2019-01-18T03:32:48.727Z,100508.88
2019-01-18T03:35:19.873Z,100519.42
2019-01-18T03:37:48.313Z,100517.75
2019-01-18T03:40:18.499Z,100525.09
2019-01-18T03:42:48.034Z,100541.87
2019-01-18T03:45:17.994Z,100541.81
2019-01-18T03:47:46.609Z,100542.84
2019-01-18T03:50:20.419Z,100543.84
2019-01-18T03:52:48.848Z,100547.68
2019-01-18T03:55:17.293Z,100555.24
2019-01-18T03:57:45.738Z,100554.86
2019-01-18T04:00:25.902Z,100551.63
2019-01-18T04:02:50.456Z,100567.28
2019-01-18T04:05:18.910Z,100573.94
2019-01-18T04:07:47.425Z,100578.55
2019-01-18T04:10:21.113Z,100579.16
2019-01-18T04:12:49.809Z,100590.13
2019-01-18T04:15:21.120Z,100593.97
2019-01-18T04:17:49.574Z,100603.44
2019-01-18T04:20:19.949Z,100605.59
2019-01-18T04:22:48.464Z,100624.36
2019-01-18T04:25:19.079Z,100624.48
2019-01-18T04:27:47.599Z,100621.20
2019-01-18T04:30:18.465Z,100627.43
2019-01-18T04:32:46.934Z,100636.10
2019-01-18T04:35:15.504Z,100638.72
2019-01-18T04:37:44.023Z,100646.20
2019-01-18T04:40:20.984Z,100657.89
2019-01-18T04:42:49.437Z,100662.76
2019-01-18T04:45:18.063Z,100670.00
2019-01-18T04:47:46.497Z,100665.52
2019-01-18T04:50:16.877Z,100698.88
2019-01-18T04:52:45.487Z,100680.31
2019-01-18T04:55:13.935Z,100682.72
2019-01-18T04:57:42.447Z,100688.59
2019-01-18T05:00:16.347Z,100685.94
2019-01-18T05:02:44.941Z,100686.36
2019-01-18T05:05:13.380Z,100691.81
2019-01-18T05:07:41.899Z,100695.56
2019-01-18T05:10:13.104Z,100709.77
2019-01-18T05:12:41.562Z,100708.81
2019-01-18T05:15:15.841Z,100722.69
2019-01-18T05:17:44.290Z,100731.69
2019-01-18T05:20:14.380Z,100717.95
2019-01-18T05:22:42.815Z,100721.52
2019-01-18T05:25:12.914Z,100740.55
2019-01-18T05:27:41.365Z,100752.05
2019-01-18T05:30:27.566Z,100757.55
2019-01-18T05:32:56.001Z,100754.68
2019-01-18T05:35:24.825Z,100769.31
2019-01-18T05:37:53.261Z,100779.27
2019-01-18T05:40:22.952Z,100784.50
2019-01-18T05:42:51.555Z,100785.17
2019-01-18T05:45:21.636Z,100797.11
2019-01-18T05:47:50.720Z,100800.33
2019-01-18T05:50:21.703Z,100807.06
2019-01-18T05:52:50.128Z,100816.31
2019-01-18T05:55:18.586Z,100818.38
2019-01-18T05:57:47.162Z,100829.39
2019-01-18T06:00:31.519Z,100834.47
2019-01-18T06:02:59.978Z,100840.14
2019-01-18T06:05:29.605Z,100846.22
2019-01-18T06:07:58.047Z,100849.08
2019-01-18T06:10:26.499Z,100853.71
2019-01-18T06:12:54.936Z,100866.40
2019-01-18T06:15:23.427Z,100867.67
2019-01-18T06:17:51.871Z,100873.76
2019-01-18T06:20:20.384Z,100877.89
2019-01-18T06:22:48.841Z,100880.41
2019-01-18T06:25:17.317Z,100883.36
2019-01-18T06:27:45.739Z,100894.54
2019-01-18T06:30:17.273Z,100903.22
2019-01-18T06:32:45.712Z,100909.17
2019-01-18T06:35:14.905Z,100919.39
2019-01-18T06:37:43.351Z,100929.25
2019-01-18T06:40:20.390Z,100931.31
2019-01-18T06:42:48.871Z,100925.19
2019-01-18T06:45:19.653Z,100936.23
2019-01-18T06:47:48.085Z,100947.01
2019-01-18T06:50:18.177Z,100946.31
2019-01-18T06:52:46.699Z,100964.14
2019-01-18T06:55:15.216Z,100975.14
2019-01-18T06:57:43.674Z,100981.66
2019-01-18T07:00:18.093Z,100988.77
2019-01-18T07:02:46.601Z,101001.43
2019-01-18T07:05:15.049Z,101005.27
2019-01-18T07:07:43.527Z,101011.17
2019-01-18T07:10:20.655Z,101016.54
2019-01-18T07:12:45.259Z,101014.99
2019-01-18T07:15:13.950Z,101028.40
2019-01-18T07:17:42.406Z,101029.81
2019-01-18T07:20:18.871Z,101041.31
2019-01-18T07:22:47.371Z,101037.23
2019-01-18T07:25:23.841Z,101045.63
2019-01-18T07:27:52.357Z,101057.37
2019-01-18T07:30:26.333Z,101063.27
2019-01-18T07:32:54.777Z,101066.84
2019-01-18T07:35:23.399Z,101071.03
2019-01-18T07:37:51.857Z,101078.68
2019-01-18T07:40:20.401Z,101086.34
2019-01-18T07:42:48.869Z,101090.83
2019-01-18T07:45:22.971Z,101106.12
2019-01-18T07:47:51.430Z,101096.94
2019-01-18T07:50:20.366Z,101107.42
2019-01-18T07:52:48.911Z,101114.30
2019-01-18T07:55:17.436Z,101121.95
2019-01-18T07:57:45.973Z,101120.66
2019-01-18T08:00:20.023Z,101136.77
2019-01-18T08:02:48.661Z,101139.20
2019-01-18T08:05:17.338Z,101143.52
2019-01-18T08:07:45.982Z,101155.16
2019-01-18T08:10:22.590Z,101159.87
2019-01-18T08:12:51.182Z,101170.84
2019-01-18T08:15:22.167Z,101167.27
2019-01-18T08:17:50.679Z,101175.81
2019-01-18T08:20:23.840Z,101186.80
2019-01-18T08:22:52.755Z,101194.20
2019-01-18T08:25:21.299Z,101193.45
2019-01-18T08:27:49.753Z,101206.72
2019-01-18T08:30:20.240Z,101214.13
2019-01-18T08:32:48.808Z,101211.83
2019-01-18T08:35:18.908Z,101221.30
2019-01-18T08:37:47.434Z,101230.48
2019-01-18T08:40:27.530Z,101228.81
2019-01-18T08:42:56.059Z,101231.01
2019-01-18T08:45:30.232Z,101237.88
2019-01-18T08:47:58.737Z,101239.94
2019-01-18T08:50:27.266Z,101243.13
2019-01-18T08:52:55.726Z,101243.52
2019-01-18T08:55:24.183Z,101251.04
2019-01-18T08:57:52.642Z,101256.39
2019-01-18T09:00:26.410Z,101259.34
2019-01-18T09:02:54.854Z,101261.15
2019-01-18T09:05:25.548Z,101259.09
2019-01-18T09:07:55.261Z,101267.00
2019-01-18T09:10:30.026Z,101269.30
2019-01-18T09:12:58.771Z,101272.88
2019-01-18T09:15:27.309Z,101278.26
2019-01-18T09:17:55.740Z,101285.92
2019-01-18T09:20:26.426Z,101287.45
2019-01-18T09:22:54.952Z,101289.50
2019-01-18T09:25:23.388Z,101292.33
2019-01-18T09:27:51.819Z,101294.36
2019-01-18T09:30:30.654Z,101296.66
2019-01-18T09:32:59.085Z,101305.88
2019-01-18T09:35:27.682Z,101301.14
2019-01-18T09:37:58.265Z,101308.02
2019-01-18T09:40:29.063Z,101310.32
2019-01-18T09:42:57.495Z,101316.10
2019-01-18T09:45:25.940Z,101316.48
2019-01-18T09:47:54.453Z,101315.59
2019-01-18T09:50:28.233Z,101318.88
2019-01-18T09:52:57.026Z,101319.65
2019-01-18T09:55:25.510Z,101317.34
2019-01-18T09:57:53.979Z,101316.97
2019-01-18T10:00:28.032Z,101323.73
2019-01-18T10:02:57.135Z,101326.02
2019-01-18T10:05:25.624Z,101325.63
2019-01-18T10:07:54.067Z,101325.89
2019-01-18T10:10:23.598Z,101320.77
2019-01-18T10:12:52.463Z,101314.22
2019-01-18T10:15:32.330Z,101323.95
2019-01-18T10:18:01.057Z,101322.70
2019-01-18T10:20:29.514Z,101319.61
2019-01-18T10:22:58.292Z,101325.45
2019-01-18T10:25:26.761Z,101322.63
2019-01-18T10:27:55.195Z,101326.45
2019-01-18T10:30:25.713Z,101330.92
2019-01-18T10:32:54.315Z,101329.95
2019-01-18T10:35:24.043Z,101334.41
2019-01-18T10:37:52.665Z,101331.83
2019-01-18T10:40:21.137Z,101331.04
2019-01-18T10:42:50.717Z,101331.94
2019-01-18T10:45:20.535Z,101331.41
2019-01-18T10:47:50.017Z,101340.77
2019-01-18T10:50:20.960Z,101337.42
2019-01-18T10:52:49.581Z,101342.55
2019-01-18T10:55:18.131Z,101351.34
2019-01-18T10:57:46.636Z,101358.16
2019-01-18T11:00:26.666Z,101358.42
2019-01-18T11:02:55.165Z,101367.34
2019-01-18T11:05:23.995Z,101362.20
2019-01-18T11:07:52.597Z,101371.68
2019-01-18T11:10:21.060Z,101372.70
2019-01-18T11:12:49.589Z,101375.69
2019-01-18T11:15:26.258Z,101374.91
2019-01-18T11:17:55.054Z,101374.11
2019-01-18T11:20:34.701Z,101372.94
2019-01-18T11:23:03.175Z,101379.58
2019-01-18T11:25:32.212Z,101375.34
2019-01-18T11:28:00.800Z,101376.38
2019-01-18T11:30:29.257Z,101380.33
2019-01-18T11:32:57.703Z,101373.65
2019-01-18T11:35:26.161Z,101379.52
2019-01-18T11:37:54.627Z,101372.63
2019-01-18T11:40:24.127Z,101384.65
2019-01-18T11:42:53.024Z,101383.42
2019-01-18T11:45:21.465Z,101381.08
2019-01-18T11:47:49.920Z,101381.56
2019-01-18T11:50:24.160Z,101387.45
2019-01-18T11:52:52.611Z,101389.75
2019-01-18T11:55:21.060Z,101391.29
2019-01-18T11:57:49.725Z,101395.36
2019-01-18T12:00:23.770Z,101395.66
2019-01-18T12:02:52.318Z,101389.45
2019-01-18T12:05:20.914Z,101399.70
2019-01-18T12:07:49.358Z,101394.08
2019-01-18T12:10:26.367Z,101398.19
2019-01-18T12:12:54.836Z,101393.69
2019-01-18T12:15:23.456Z,101394.05
2019-01-18T12:17:51.919Z,101396.13
2019-01-18T12:20:26.105Z,101397.73
2019-01-18T12:22:54.550Z,101403.72
2019-01-18T12:25:23.012Z,101398.33
2019-01-18T12:27:51.476Z,101408.31
2019-01-18T12:30:25.996Z,101408.09
2019-01-18T12:32:54.456Z,101410.88
2019-01-18T12:35:22.920Z,101410.84
2019-01-18T12:37:51.360Z,101411.34
2019-01-18T12:40:19.797Z,101413.18
2019-01-18T12:42:48.264Z,101416.00
2019-01-18T12:45:19.155Z,101407.66
2019-01-18T12:47:47.635Z,101406.48
2019-01-18T12:50:19.305Z,101400.10
2019-01-18T12:52:47.744Z,101403.55
2019-01-18T12:55:16.284Z,101402.14
2019-01-18T12:57:44.727Z,101404.73
2019-01-18T13:00:18.900Z,101400.73
2019-01-18T13:02:47.340Z,101407.98
2019-01-18T13:05:18.740Z,101415.94
2019-01-18T13:07:47.952Z,101403.13
2019-01-18T13:10:16.579Z,101408.25
2019-01-18T13:12:45.094Z,101409.89
2019-01-18T13:15:22.638Z,101419.16
2019-01-18T13:17:51.076Z,101410.32
2019-01-18T13:20:19.547Z,101411.11
2019-01-18T13:22:47.976Z,101416.98
2019-01-18T13:25:18.085Z,101412.48
2019-01-18T13:27:46.516Z,101414.16
2019-01-18T13:30:19.090Z,101414.39
2019-01-18T13:32:47.697Z,101412.55
2019-01-18T13:35:16.610Z,101415.28
2019-01-18T13:37:45.184Z,101420.27
2019-01-18T13:40:19.251Z,101419.52
2019-01-18T13:42:47.680Z,101422.48
2019-01-18T13:45:16.285Z,101426.45
2019-01-18T13:47:46.198Z,101426.95
2019-01-18T13:50:18.908Z,101426.06
2019-01-18T13:52:48.705Z,101433.03
2019-01-18T13:55:23.473Z,101433.16
2019-01-18T13:57:51.896Z,101435.95
2019-01-18T14:00:20.701Z,101437.40
2019-01-18T14:02:49.146Z,101433.95
2019-01-18T14:05:17.820Z,101432.93
2019-01-18T14:07:46.254Z,101436.48
2019-01-18T14:10:26.438Z,101437.76
2019-01-18T14:12:54.878Z,101436.77
2019-01-18T14:15:24.799Z,101433.63
2019-01-18T14:17:53.496Z,101432.64
2019-01-18T14:20:28.981Z,101428.62
2019-01-18T14:22:57.394Z,101434.70
2019-01-18T14:25:25.931Z,101432.63
2019-01-18T14:27:54.538Z,101431.38
2019-01-18T14:30:25.140Z,101436.80
2019-01-18T14:32:55.591Z,101434.11
2019-01-18T14:35:24.807Z,101436.56
2019-01-18T14:37:53.593Z,101438.31
2019-01-18T14:40:22.126Z,101444.73
2019-01-18T14:42:52.405Z,101439.59
2019-01-18T14:45:38.359Z,101439.88
2019-01-18T14:48:06.911Z,101442.34
2019-01-18T14:50:35.400Z,101440.98
2019-01-18T14:53:04.083Z,101441.22
2019-01-18T14:55:32.546Z,101447.63
2019-01-18T14:58:01.127Z,101441.73
2019-01-18T15:00:33.843Z,101442.76
2019-01-18T15:03:03.581Z,101441.37
2019-01-18T15:05:33.043Z,101443.65
2019-01-18T15:08:01.507Z,101445.36
2019-01-18T15:10:30.033Z,101452.55
2019-01-18T15:13:04.303Z,101448.95
2019-01-18T15:15:32.957Z,101448.47
2019-01-18T15:18:01.440Z,101445.00
2019-01-18T15:20:31.834Z,101448.69
2019-01-18T15:23:00.963Z,101452.66
2019-01-18T15:25:29.422Z,101454.16
2019-01-18T15:27:58.807Z,101449.91
2019-01-18T15:30:32.157Z,101447.65
2019-01-18T15:33:00.853Z,101434.11
2019-01-18T15:35:31.771Z,101437.06
2019-01-18T15:38:00.249Z,101439.50
2019-01-18T15:40:34.933Z,101438.72
2019-01-18T15:43:03.774Z,101442.21
2019-01-18T15:45:32.305Z,101441.58
2019-01-18T15:48:00.776Z,101448.51
2019-01-18T15:50:31.747Z,101448.53
2019-01-18T15:53:00.215Z,101449.70
2019-01-18T15:55:28.715Z,101450.83
2019-01-18T15:57:57.207Z,101448.04
2019-01-18T16:00:30.801Z,101453.40
2019-01-18T16:02:59.433Z,101456.09
2019-01-18T16:05:27.962Z,101453.40
2019-01-18T16:07:56.409Z,101453.66
2019-01-18T16:10:25.203Z,101455.68
2019-01-18T16:12:53.911Z,101468.86
2019-01-18T16:15:46.966Z,101463.07
2019-01-18T16:18:18.492Z,101466.02
2019-01-18T16:20:46.972Z,101463.19
2019-01-18T16:23:15.541Z,101467.13
2019-01-18T16:25:44.085Z,101465.84
2019-01-18T16:28:12.613Z,101466.38
2019-01-18T16:30:41.228Z,101467.08
2019-01-18T16:33:09.894Z,101472.62
2019-01-18T16:35:38.416Z,101469.05
2019-01-18T16:38:09.938Z,101469.23
2019-01-18T16:40:38.398Z,101471.97
2019-01-18T16:43:29.584Z,101456.02
2019-01-18T16:45:58.068Z,101463.05
2019-01-18T16:48:26.615Z,101464.41
2019-01-18T16:50:55.089Z,101465.82
2019-01-18T16:53:23.692Z,101468.86
2019-01-18T16:55:52.191Z,101468.73
2019-01-18T16:58:20.619Z,101471.42
2019-01-18T17:00:52.520Z,101469.09
2019-01-18T17:03:21.084Z,101478.86
2019-01-18T17:05:50.383Z,101470.05
2019-01-18T17:08:19.033Z,101474.55
2019-01-18T17:10:47.513Z,101471.45
2019-01-18T17:13:15.991Z,101466.89
2019-01-18T17:15:44.469Z,101470.51
2019-01-18T17:18:13.068Z,101468.23
2019-01-18T17:20:44.780Z,101470.16
2019-01-18T17:23:13.260Z,101472.56
2019-01-18T17:25:41.811Z,101476.55
2019-01-18T17:28:10.284Z,101472.17
2019-01-18T17:30:38.790Z,101464.48
2019-01-18T17:33:07.273Z,101473.20
2019-01-18T17:35:41.995Z,101475.77
2019-01-18T17:38:16.593Z,101484.73
2019-01-18T17:40:50.829Z,101480.03
2019-01-18T17:43:39.709Z,101485.64
2019-01-18T17:46:32.319Z,101488.64
2019-01-18T17:49:12.806Z,101493.78
2019-01-18T17:51:50.106Z,101495.38
2019-01-18T17:54:27.341Z,101501.80
2019-01-18T17:56:58.820Z,101502.43
2019-01-18T17:59:47.803Z,101505.75
2019-01-18T18:02:34.089Z,101502.92
2019-01-18T18:05:40.579Z,101500.63
2019-01-18T18:08:14.980Z,101500.92
2019-01-18T18:10:49.414Z,101505.77
2019-01-18T18:13:25.045Z,101509.11
2019-01-18T18:15:59.349Z,101511.66
2019-01-18T18:18:33.731Z,101508.84
2019-01-18T18:21:20.436Z,101514.45
2019-01-18T18:24:23.982Z,101515.09
2019-01-18T18:27:23.018Z,101515.92
2019-01-18T18:30:00.288Z,101515.67
2019-01-18T18:32:40.880Z,101525.70
2019-01-18T18:35:39.661Z,101528.56
2019-01-18T18:38:11.264Z,101528.37
2019-01-18T18:41:05.550Z,101528.28
2019-01-18T18:43:49.270Z,101528.17
2019-01-18T18:46:26.519Z,101529.08
2019-01-18T18:48:58.065Z,101533.94
2019-01-18T18:51:35.452Z,101538.30
2019-01-18T18:54:37.160Z,101535.76
2019-01-18T18:57:25.275Z,101538.92
2019-01-18T19:00:20.826Z,101533.14
2019-01-18T19:03:15.226Z,101540.31
2019-01-18T19:06:09.538Z,101536.23
2019-01-18T19:08:58.952Z,101539.28
2019-01-18T19:12:00.973Z,101538.53
2019-01-18T19:14:41.667Z,101543.16
2019-01-18T19:17:21.797Z,101547.78
2019-01-18T19:20:07.752Z,101545.69
2019-01-18T19:22:39.307Z,101543.39
2019-01-18T19:25:16.528Z,101548.80
2019-01-18T19:27:56.508Z,101548.06
2019-01-18T19:30:49.393Z,101547.27
2019-01-18T19:33:42.428Z,101548.27
2019-01-18T19:36:31.382Z,101553.66
2019-01-18T19:39:10.328Z,101554.38
2019-01-18T19:41:44.594Z,101553.87
2019-01-18T19:44:22.092Z,101560.04
2019-01-18T19:47:13.422Z,101561.84
2019-01-18T19:50:20.243Z,101563.60
2019-01-18T19:53:00.596Z,101565.81
2019-01-18T19:55:44.059Z,101563.09
2019-01-18T19:58:45.872Z,101568.85
2019-01-18T20:01:29.152Z,101570.64
2019-01-18T20:04:11.437Z,101570.77
2019-01-18T20:07:06.574Z,101579.27
2019-01-18T20:09:50.097Z,101577.59
2019-01-18T20:12:26.940Z,101580.02
2019-01-18T20:14:58.493Z,101578.70
2019-01-18T20:17:52.696Z,101578.20
2019-01-18T20:20:42.321Z,101584.06
2019-01-18T20:23:31.730Z,101577.66
2019-01-18T20:26:17.931Z,101578.84
2019-01-18T20:29:01.487Z,101577.92
2019-01-18T20:31:47.870Z,101581.50
2019-01-18T20:34:25.104Z,101586.91
2019-01-18T20:37:00.524Z,101587.66
2019-01-18T20:39:49.902Z,101586.77
2019-01-18T20:42:24.031Z,101589.94
2019-01-18T20:45:18.347Z,101593.28
2019-01-18T20:47:55.757Z,101591.89
2019-01-18T20:50:42.518Z,101596.02
2019-01-18T20:53:26.218Z,101592.31
2019-01-18T20:55:57.739Z,101590.22
2019-01-18T20:58:32.175Z,101597.39
2019-01-18T21:01:06.478Z,101597.56
2019-01-18T21:03:47.587Z,101592.02
2019-01-18T21:06:19.106Z,101602.82
2019-01-18T21:09:04.314Z,101607.30
2019-01-18T21:11:35.876Z,101599.98
2019-01-18T21:14:10.584Z,101600.87
2019-01-18T21:16:54.274Z,101608.95
2019-01-18T21:19:44.879Z,101605.73
2019-01-18T21:22:19.232Z,101605.00
2019-01-18T21:25:02.450Z,101616.78
2019-01-18T21:27:53.490Z,101618.98
2019-01-18T21:30:46.793Z,101623.84
2019-01-18T21:33:35.524Z,101622.16
2019-01-18T21:36:09.636Z,101625.12
2019-01-18T21:39:00.693Z,101625.78
2019-01-18T21:41:42.460Z,101624.34
2019-01-18T21:44:19.955Z,101632.32
2019-01-18T21:47:12.729Z,101631.81
2019-01-18T21:49:59.485Z,101635.41
2019-01-18T21:52:53.828Z,101633.48
2019-01-18T21:55:31.123Z,101636.30
2019-01-18T21:58:37.350Z,101640.25
2019-01-18T22:01:14.737Z,101636.78
2019-01-18T22:03:48.819Z,101638.70
2019-01-18T22:06:36.569Z,101642.84
2019-01-18T22:09:13.877Z,101638.47
2019-01-18T22:12:00.306Z,101650.80
2019-01-18T22:14:31.820Z,101641.30
2019-01-18T22:17:27.454Z,101652.20
2019-01-18T22:20:15.744Z,101648.24
2019-01-18T22:22:58.525Z,101654.91
2019-01-18T22:25:45.309Z,101652.08
2019-01-18T22:28:19.541Z,101651.83
2019-01-18T22:31:11.097Z,101651.81
2019-01-18T22:33:51.731Z,101656.45
2019-01-18T22:36:38.267Z,101663.87
2019-01-18T22:39:15.526Z,101666.30
2019-01-18T22:42:10.919Z,101666.80
2019-01-18T22:44:51.476Z,101657.06
2019-01-18T22:47:34.719Z,101661.41
2019-01-18T22:50:11.899Z,101662.31
2019-01-18T22:52:43.405Z,101664.13
2019-01-18T22:55:33.029Z,101664.37
2019-01-18T22:58:16.514Z,101661.56
2019-01-18T23:01:07.122Z,101664.27
2019-01-18T23:03:44.624Z,101661.56
2019-01-18T23:06:28.167Z,101663.62
2019-01-18T23:09:34.559Z,101669.25
2019-01-18T23:12:24.110Z,101665.91
2019-01-18T23:14:58.461Z,101666.44
2019-01-18T23:17:32.749Z,101664.37
2019-01-18T23:20:28.723Z,101667.71
2019-01-18T23:23:03.378Z,101667.44
2019-01-18T23:25:49.427Z,101673.71
2019-01-18T23:28:38.867Z,101673.47
2019-01-18T23:31:18.968Z,101662.33
2019-01-18T23:33:50.448Z,101663.48
2019-01-18T23:36:28.014Z,101673.09
2019-01-18T23:38:59.518Z,101664.88
2019-01-18T23:41:31.000Z,101665.13
2019-01-18T23:44:11.675Z,101670.14
2019-01-18T23:46:58.459Z,101673.33
2019-01-18T23:49:36.040Z,101669.12
2019-01-18T23:52:10.254Z,101667.69
2019-01-18T23:55:03.140Z,101664.48
2019-01-18T23:57:40.405Z,101663.73
